Canton, CT

5:43 PM EDT on September 01, 2015 (GMT -0400)
Bill's Backyard | | Change Station
CLOSE
Current Station
Personal Weather Station
Location: West Simsbury, CT
Elevation: 420 ft
Nearby Weather Stations

Elev 420 ft 41.88 °N, 72.87 °W | Updated 3 hours ago

Clear
Clear
83.6 °F
Feels Like 88 °F
N
1.0
Wind Variable Wind from SE
Gusts 3.0 mph

Today
High -- | Low -- °F
--% Chance of Precip.
Yesterday
High -- | Low -- °F
Precip. -- in
6:16 AM 7:25 PM
Waning Gibbous, 86% visible
Pressure 30.01 in
Visibility 10.0 miles
Clouds Clear
Heat Index 88 °F
Dew Point 71 °F
Humidity 65%
Rainfall 0.00 in
Snow Depth Not available.
UV 3 out of 12
Pollen 9.80 out of 12
Air Quality Not available.
Flu Activity Not available.
METAR KBDL 012051Z 00000KT 10SM CLR 30/14 A3001 RMK AO2 SLP161 T03000139 56010
Pressure 30.01 in
Visibility 10.0 miles
Clouds Clear
Heat Index 88 °F
Dew Point 71 °F
Humidity 65%
Rainfall 0.00 in
Snow Depth Not available.
UV 3 out of 12
Pollen 9.80 out of 12
Air Quality Not available.
Flu Activity Not available.
METAR KBDL 012051Z 00000KT 10SM CLR 30/14 A3001 RMK AO2 SLP161 T03000139 56010

10-Day Weather Forecast

×

Almanac

Astronomy

Sep. 01, 2015 Rise Set
Actual Time
Civil Twilight
Nautical Twilight
Astronomical Twilight
Moon
Length of Visible Light
Length of Day
Tomorrow will be .
, % of the Moon is Illuminated

Today's Extremes

State Highs State Lows

Community

WunderPhotos

Upload Photos

1,851,628 photos uploaded!

WunderBlogs® & News

Nearby

Air Quality

  Air Quality AQ Index Pollutant
Not available.

Snow Depth

Station Depth Elevation

Earthquake Activity

City Distance Mag. Time & Date
Minimum magnitude displayed is 2.5.

Coastal Water Temperatures

Place Temperature

Stations

Nearby Weather Stations

Station Location Temp. Windchill Dew Point Humidity Wind Precip. Elev Updated Type